createdAt,value
2018-05-10T00:02:18.294Z,91.20
2018-05-10T00:04:46.530Z,91.30
2018-05-10T00:07:14.771Z,91.50
2018-05-10T00:09:43.007Z,91.30
2018-05-10T00:12:11.260Z,91.50
2018-05-10T00:14:40.255Z,92.20
2018-05-10T00:17:09.263Z,91.90
2018-05-10T00:19:37.496Z,91.90
2018-05-10T00:22:05.759Z,92.40
2018-05-10T00:24:33.979Z,92.40
2018-05-10T00:27:02.225Z,92.40
2018-05-10T00:29:30.463Z,92.50
2018-05-10T00:31:58.713Z,93.10
2018-05-10T00:34:26.952Z,92.30
2018-05-10T00:36:55.190Z,92.40
2018-05-10T00:39:23.428Z,93.30
2018-05-10T00:41:51.683Z,93.20
2018-05-10T00:44:20.683Z,92.90
2018-05-10T00:46:49.704Z,92.60
2018-05-10T00:49:17.938Z,92.30
2018-05-10T00:51:46.960Z,92.20
2018-05-10T00:54:27.207Z,92.20
2018-05-10T00:56:55.862Z,92.00
2018-05-10T00:59:24.073Z,92.10
2018-05-10T01:01:52.324Z,92.10
2018-05-10T01:04:21.322Z,92.50
2018-05-10T01:06:50.333Z,91.80
2018-05-10T01:09:18.571Z,91.80
2018-05-10T01:11:46.819Z,91.30
2018-05-10T01:14:15.069Z,91.30
2018-05-10T01:16:43.371Z,91.40
2018-05-10T01:19:11.624Z,91.40
2018-05-10T01:21:39.857Z,90.90
2018-05-10T01:24:08.877Z,90.60
2018-05-10T01:26:37.115Z,90.60
2018-05-10T01:29:06.127Z,90.90
2018-05-10T01:31:34.355Z,90.90
2018-05-10T01:34:02.615Z,90.90
2018-05-10T01:36:30.852Z,90.80
2018-05-10T01:38:59.105Z,90.90
2018-05-10T01:41:28.116Z,90.90
2018-05-10T01:43:56.359Z,90.90
2018-05-10T01:46:24.584Z,91.30
2018-05-10T01:48:52.841Z,91.70
2018-05-10T01:51:21.086Z,91.90
2018-05-10T01:53:50.103Z,92.30
2018-05-10T01:56:18.349Z,92.30
2018-05-10T01:58:46.595Z,92.40
2018-05-10T02:01:14.836Z,92.50
2018-05-10T02:03:43.155Z,92.20
2018-05-10T02:06:11.328Z,92.20
2018-05-10T02:08:39.578Z,91.80
2018-05-10T02:11:07.816Z,91.90
2018-05-10T02:13:36.074Z,92.00
2018-05-10T02:16:05.062Z,92.70
2018-05-10T02:18:34.074Z,92.80
2018-05-10T02:21:02.320Z,92.80
2018-05-10T02:23:30.564Z,92.60
2018-05-10T02:25:58.806Z,92.50
2018-05-10T02:28:27.059Z,92.80
2018-05-10T02:30:56.059Z,92.90
2018-05-10T02:33:24.315Z,92.80
2018-05-10T02:35:53.314Z,91.80
2018-05-10T02:38:22.322Z,91.60
2018-05-10T02:40:50.565Z,91.50
2018-05-10T02:43:18.816Z,91.90
2018-05-10T02:45:47.053Z,92.20
2018-05-10T02:48:15.320Z,92.60
2018-05-10T02:50:43.560Z,92.20
2018-05-10T02:53:11.802Z,92.70
2018-05-10T02:55:40.052Z,93.10
2018-05-10T02:58:08.291Z,93.30
2018-05-10T03:00:37.307Z,93.20
2018-05-10T03:03:05.871Z,93.10
2018-05-10T03:05:34.896Z,92.90
2018-05-10T03:08:03.130Z,92.90
2018-05-10T03:10:32.155Z,93.60
2018-05-10T03:13:00.390Z,93.60
2018-05-10T03:15:29.443Z,93.40
2018-05-10T03:17:57.680Z,93.40
2018-05-10T03:20:25.936Z,93.40
2018-05-10T03:22:54.939Z,92.70
2018-05-10T03:25:23.190Z,92.70
2018-05-10T03:27:51.424Z,92.90
2018-05-10T03:30:19.675Z,93.30
2018-05-10T03:32:47.912Z,93.00
2018-05-10T03:35:16.171Z,93.20
2018-05-10T03:37:44.403Z,93.10
2018-05-10T03:40:12.660Z,93.30
2018-05-10T03:42:42.044Z,93.30
2018-05-10T03:45:10.266Z,93.30
2018-05-10T03:47:38.517Z,93.80
2018-05-10T03:50:06.767Z,93.20
2018-05-10T03:52:35.780Z,93.40
2018-05-10T03:55:04.034Z,93.40
2018-05-10T03:57:33.039Z,93.80
2018-05-10T04:00:01.311Z,93.70
2018-05-10T04:05:48.136Z,92.80
2018-05-10T04:08:29.110Z,94.20
2018-05-10T04:11:10.019Z,94.70
2018-05-10T04:13:39.462Z,94.80
2018-05-10T04:16:07.689Z,94.80
2018-05-10T04:18:35.924Z,94.80
2018-05-10T04:21:04.935Z,95.10
2018-05-10T04:23:33.195Z,95.10
2018-05-10T04:26:02.196Z,94.00
2018-05-10T04:28:30.447Z,93.90
2018-05-10T04:30:59.448Z,95.10
2018-05-10T04:33:28.472Z,94.30
2018-05-10T04:35:56.710Z,94.30
2018-05-10T04:38:25.733Z,94.40
2018-05-10T04:40:53.961Z,94.40
2018-05-10T04:43:22.207Z,94.10
2018-05-10T04:45:50.447Z,94.50
2018-05-10T04:48:18.741Z,94.50
2018-05-10T04:50:46.975Z,94.70
2018-05-10T04:53:16.001Z,95.50
2018-05-10T04:55:44.235Z,95.50
2018-05-10T04:58:13.246Z,94.90
2018-05-10T05:00:41.485Z,94.90
2018-05-10T05:03:09.757Z,94.90
2018-05-10T05:05:37.966Z,95.00
2018-05-10T05:08:06.241Z,95.30
2018-05-10T05:10:35.243Z,95.10
2018-05-10T05:13:03.493Z,95.10
2018-05-10T05:15:32.495Z,94.50
2018-05-10T05:18:00.758Z,94.50
2018-05-10T05:20:29.762Z,94.00
2018-05-10T05:22:58.019Z,93.90
2018-05-10T05:25:27.019Z,93.90
2018-05-10T05:27:56.042Z,93.30
2018-05-10T05:30:24.286Z,93.30
2018-05-10T05:32:53.299Z,93.80
2018-05-10T05:35:21.532Z,93.80
2018-05-10T05:37:49.797Z,93.60
2018-05-10T05:40:18.025Z,93.70
2018-05-10T05:42:46.263Z,93.90
2018-05-10T05:45:15.281Z,93.50
2018-05-10T05:47:43.510Z,93.50
2018-05-10T05:50:11.759Z,92.80
2018-05-10T05:52:39.995Z,92.80
2018-05-10T05:55:08.336Z,92.90
2018-05-10T05:57:37.246Z,92.40
2018-05-10T06:00:06.266Z,91.70
2018-05-10T06:02:34.509Z,91.60
2018-05-10T06:05:03.523Z,91.20
2018-05-10T06:07:31.759Z,91.10
2018-05-10T06:10:00.011Z,90.30
2018-05-10T06:12:28.244Z,90.20
2018-05-10T06:14:56.486Z,89.50
2018-05-10T06:17:24.714Z,88.80
2018-05-10T06:19:52.959Z,86.30
2018-05-10T06:22:21.955Z,83.00
2018-05-10T06:24:50.311Z,83.00
2018-05-10T06:27:19.208Z,81.50
2018-05-10T06:29:48.212Z,80.10
2018-05-10T06:32:16.452Z,79.70
2018-05-10T06:34:44.695Z,79.80
2018-05-10T06:37:12.922Z,78.90
2018-05-10T06:39:42.061Z,79.50
2018-05-10T06:42:10.283Z,79.30
2018-05-10T06:44:39.294Z,78.90
2018-05-10T06:47:07.538Z,78.90
2018-05-10T06:49:35.771Z,79.60
2018-05-10T06:52:04.039Z,79.00
2018-05-10T06:54:32.316Z,78.50
2018-05-10T06:57:01.287Z,79.20
2018-05-10T06:59:29.526Z,79.20
2018-05-10T07:01:57.775Z,80.00
2018-05-10T07:04:26.011Z,80.30
2018-05-10T07:06:54.260Z,80.30
2018-05-10T07:09:23.292Z,78.60
2018-05-10T07:11:51.515Z,78.40
2018-05-10T07:14:19.742Z,79.00
2018-05-10T07:16:48.379Z,78.30
2018-05-10T07:19:17.761Z,78.50
2018-05-10T07:21:46.308Z,78.50
2018-05-10T07:24:15.385Z,79.60
2018-05-10T07:26:43.635Z,79.50
2018-05-10T07:29:12.642Z,81.80
2018-05-10T07:31:41.055Z,81.80
2018-05-10T07:34:09.282Z,79.80
2018-05-10T07:36:38.308Z,80.00
2018-05-10T07:39:06.538Z,80.00
2018-05-10T07:41:35.556Z,78.70
2018-05-10T07:44:03.793Z,78.60
2018-05-10T07:46:32.040Z,79.00
2018-05-10T07:49:00.279Z,78.80
2018-05-10T07:51:28.540Z,78.60
2018-05-10T07:53:56.838Z,78.70
2018-05-10T07:56:25.064Z,78.50
2018-05-10T07:58:53.318Z,79.20
2018-05-10T08:01:21.684Z,79.50
2018-05-10T08:03:49.898Z,79.40
2018-05-10T08:06:18.903Z,79.50
2018-05-10T08:08:47.926Z,77.90
2018-05-10T08:11:16.154Z,77.80
2018-05-10T08:13:45.166Z,79.00
2018-05-10T08:16:13.406Z,78.90
2018-05-10T08:18:41.648Z,77.90
2018-05-10T08:21:10.184Z,78.00
2018-05-10T08:23:47.906Z,79.30
2018-05-10T08:26:16.154Z,79.30
2018-05-10T08:28:45.170Z,80.60
2018-05-10T08:31:13.411Z,80.60
2018-05-10T08:33:42.422Z,79.80
2018-05-10T08:36:10.656Z,79.80
2018-05-10T08:38:38.899Z,80.40
2018-05-10T08:41:07.148Z,78.60
2018-05-10T08:43:35.405Z,79.80
2018-05-10T08:46:04.416Z,78.20
2018-05-10T08:48:32.680Z,78.10
2018-05-10T08:51:01.687Z,76.20
2018-05-10T08:53:30.602Z,76.20
2018-05-10T08:55:58.840Z,74.40
2018-05-10T08:58:27.090Z,74.00
2018-05-10T09:00:56.094Z,72.90
2018-05-10T09:03:25.115Z,71.30
2018-05-10T09:05:53.354Z,71.20
2018-05-10T09:08:22.380Z,75.70
2018-05-10T09:10:50.903Z,75.60
2018-05-10T09:13:19.255Z,75.50
2018-05-10T09:15:47.502Z,75.20
2018-05-10T09:18:16.198Z,75.80
2018-05-10T09:20:44.435Z,74.00
2018-05-10T09:23:13.463Z,75.20
2018-05-10T09:25:42.015Z,75.80
2018-05-10T09:28:11.033Z,72.50
2018-05-10T09:30:39.270Z,72.50
2018-05-10T09:33:08.287Z,72.10
2018-05-10T09:35:38.518Z,72.10
2018-05-10T09:40:58.992Z,72.30
2018-05-10T09:43:39.643Z,71.10
2018-05-10T09:46:15.242Z,70.30
2018-05-10T09:48:44.639Z,70.00
2018-05-10T09:51:12.877Z,69.90
2018-05-10T09:53:41.903Z,66.60
2018-05-10T09:56:10.155Z,66.60
2018-05-10T09:58:41.320Z,69.20
2018-05-10T10:01:09.563Z,69.20
2018-05-10T10:03:38.574Z,65.90
2018-05-10T10:06:06.864Z,65.80
2018-05-10T10:08:41.023Z,66.60
2018-05-10T10:11:10.138Z,67.20
2018-05-10T10:13:39.162Z,68.30
2018-05-10T10:16:07.416Z,68.30
2018-05-10T10:18:35.710Z,68.40
2018-05-10T10:21:03.954Z,66.10
2018-05-10T10:23:32.963Z,63.80
2018-05-10T10:26:01.211Z,63.80
2018-05-10T10:28:31.325Z,65.00
2018-05-10T10:30:59.530Z,64.90
2018-05-10T10:33:27.771Z,65.10
2018-05-10T10:35:57.991Z,65.50
2018-05-10T10:38:27.291Z,66.30
2018-05-10T10:40:55.515Z,65.90
2018-05-10T10:43:23.754Z,64.40
2018-05-10T10:45:53.138Z,67.00
2018-05-10T10:48:21.359Z,66.90
2018-05-10T10:50:49.610Z,67.00
2018-05-10T10:53:17.858Z,67.50
2018-05-10T10:55:46.110Z,68.20
2018-05-10T10:58:14.345Z,67.10
2018-05-10T11:00:42.604Z,68.40
2018-05-10T11:03:11.602Z,67.60
2018-05-10T11:05:39.871Z,67.60
2018-05-10T11:08:08.106Z,68.70
2018-05-10T11:10:36.383Z,67.60
2018-05-10T11:13:04.635Z,69.10
2018-05-10T11:15:33.263Z,68.70
2018-05-10T11:18:02.259Z,70.70
2018-05-10T11:20:31.292Z,70.60
2018-05-10T11:22:59.579Z,70.60
2018-05-10T11:25:27.806Z,71.10
2018-05-10T11:27:56.810Z,72.70
2018-05-10T11:30:25.061Z,72.70
2018-05-10T11:32:54.176Z,73.30
2018-05-10T11:35:22.388Z,73.20
2018-05-10T11:37:51.394Z,73.20
2018-05-10T11:40:19.643Z,73.20
2018-05-10T11:42:47.882Z,74.40
2018-05-10T11:45:16.134Z,73.70
2018-05-10T11:47:45.142Z,75.40
2018-05-10T11:50:14.155Z,75.80
2018-05-10T11:52:42.396Z,75.70
2018-05-10T11:55:11.465Z,76.40
2018-05-10T11:57:39.655Z,76.30
2018-05-10T12:00:07.902Z,75.90
2018-05-10T12:02:36.162Z,76.00
2018-05-10T12:05:04.432Z,75.60
2018-05-10T12:07:32.667Z,76.60
2018-05-10T12:10:01.674Z,76.00
2018-05-10T12:12:29.927Z,75.90
2018-05-10T12:14:58.945Z,77.30
2018-05-10T12:17:27.198Z,77.20
2018-05-10T12:19:56.214Z,77.30
2018-05-10T12:22:24.463Z,77.30
2018-05-10T12:24:53.471Z,76.40
2018-05-10T12:27:21.930Z,76.20
2018-05-10T12:29:50.931Z,76.70
2018-05-10T12:32:19.947Z,77.50
2018-05-10T12:34:48.182Z,77.40
2018-05-10T12:37:17.204Z,76.80
2018-05-10T12:39:45.436Z,76.60
2018-05-10T12:42:13.692Z,76.60
2018-05-10T12:44:41.919Z,76.00
2018-05-10T12:47:10.179Z,76.20
2018-05-10T12:49:39.186Z,76.30
2018-05-10T12:52:07.440Z,76.30
2018-05-10T12:54:36.444Z,76.70
2018-05-10T12:57:05.925Z,77.30
2018-05-10T12:59:34.136Z,77.30
2018-05-10T13:02:02.383Z,77.70
2018-05-10T13:04:31.391Z,76.40
2018-05-10T13:06:59.640Z,76.40
2018-05-10T13:09:27.867Z,76.50
2018-05-10T13:11:56.103Z,77.00
2018-05-10T13:14:25.103Z,76.20
2018-05-10T13:16:53.352Z,76.00
2018-05-10T13:19:21.667Z,77.00
2018-05-10T13:21:49.905Z,76.90
2018-05-10T13:24:18.824Z,77.50
2018-05-10T13:26:47.827Z,77.70
2018-05-10T13:29:16.048Z,77.70
2018-05-10T13:31:44.282Z,78.10
2018-05-10T13:34:12.507Z,78.10
2018-05-10T13:36:40.746Z,78.30
2018-05-10T13:39:08.979Z,78.70
2018-05-10T13:41:37.228Z,78.70
2018-05-10T13:44:05.455Z,77.20
2018-05-10T13:46:33.701Z,77.00
2018-05-10T13:49:02.167Z,76.20
2018-05-10T13:51:31.550Z,75.70
2018-05-10T13:53:59.746Z,75.70
2018-05-10T13:56:28.750Z,76.30
2018-05-10T13:58:57.002Z,76.20
2018-05-10T14:01:25.219Z,75.80
2018-05-10T14:03:53.471Z,75.20
2018-05-10T14:06:21.762Z,76.30
2018-05-10T14:08:49.967Z,77.00
2018-05-10T14:11:18.216Z,77.00
2018-05-10T14:13:46.445Z,77.10
2018-05-10T14:16:15.456Z,75.70
2018-05-10T14:18:43.686Z,75.60
2018-05-10T14:21:11.949Z,76.40
2018-05-10T14:23:40.398Z,76.10
2018-05-10T14:26:09.367Z,76.50
2018-05-10T14:28:37.615Z,76.40
2018-05-10T14:31:06.208Z,78.10
2018-05-10T14:33:34.435Z,78.60
2018-05-10T14:36:02.668Z,79.10
2018-05-10T14:38:31.675Z,80.90
2018-05-10T14:40:59.897Z,80.80
2018-05-10T14:43:28.135Z,81.50
2018-05-10T14:45:56.367Z,81.80
2018-05-10T14:48:25.381Z,83.00
2018-05-10T14:50:53.606Z,82.90
2018-05-10T14:53:21.842Z,83.60
2018-05-10T14:55:50.071Z,83.00
2018-05-10T14:58:18.307Z,82.20
2018-05-10T15:00:46.545Z,82.50
2018-05-10T15:03:14.795Z,82.70
2018-05-10T15:05:43.019Z,82.40
2018-05-10T15:08:11.271Z,82.70
2018-05-10T15:10:39.491Z,83.40
2018-05-10T15:13:08.099Z,83.90
2018-05-10T15:15:36.383Z,83.90
2018-05-10T15:18:04.590Z,84.50
2018-05-10T15:20:32.823Z,84.90
2018-05-10T15:23:01.835Z,85.10
2018-05-10T15:25:30.181Z,85.00
2018-05-10T15:27:58.449Z,85.10
2018-05-10T15:30:26.791Z,84.80
2018-05-10T15:32:55.523Z,85.50
2018-05-10T15:35:23.758Z,86.10
2018-05-10T15:37:52.187Z,85.20
2018-05-10T15:40:21.279Z,86.10
2018-05-10T15:42:49.503Z,86.20
2018-05-10T15:45:18.563Z,86.80
2018-05-10T15:47:46.959Z,86.80
2018-05-10T15:50:15.198Z,86.80
2018-05-10T15:52:43.517Z,86.40
2018-05-10T15:55:11.828Z,85.30
2018-05-10T15:57:40.067Z,86.10
2018-05-10T16:00:08.303Z,85.60
2018-05-10T16:02:37.295Z,86.20
2018-05-10T16:05:07.276Z,86.50
2018-05-10T16:07:35.680Z,86.50
2018-05-10T16:10:04.735Z,85.50
2018-05-10T16:12:32.959Z,85.50
2018-05-10T16:15:01.305Z,85.90
2018-05-10T16:17:29.534Z,86.20
2018-05-10T16:19:57.787Z,86.30
2018-05-10T16:22:26.086Z,86.30
2018-05-10T16:24:54.311Z,85.20
2018-05-10T16:27:22.663Z,85.20
2018-05-10T16:29:51.008Z,85.50
2018-05-10T16:32:19.353Z,85.00
2018-05-10T16:34:48.802Z,83.60
2018-05-10T16:37:17.051Z,83.60
2018-05-10T16:39:45.291Z,83.60
2018-05-10T16:42:13.533Z,83.50
2018-05-10T16:44:41.760Z,83.80
2018-05-10T16:47:10.006Z,83.50
2018-05-10T16:49:38.231Z,83.20
2018-05-10T16:52:06.472Z,83.10
2018-05-10T16:54:35.471Z,83.40
2018-05-10T16:57:03.731Z,83.40
2018-05-10T16:59:32.723Z,83.50
2018-05-10T17:02:01.738Z,82.70
2018-05-10T17:04:29.964Z,82.70
2018-05-10T17:06:58.345Z,81.90
2018-05-10T17:09:26.569Z,81.60
2018-05-10T17:11:55.206Z,81.10
2018-05-10T17:14:24.419Z,81.30
2018-05-10T17:16:53.443Z,80.00
2018-05-10T17:19:21.736Z,80.00
2018-05-10T17:21:49.974Z,80.70
2018-05-10T17:24:18.988Z,78.80
2018-05-10T17:26:47.315Z,78.80
2018-05-10T17:29:15.701Z,79.00
2018-05-10T17:31:43.995Z,79.50
2018-05-10T17:34:12.280Z,79.60
2018-05-10T17:36:40.574Z,79.40
2018-05-10T17:39:08.811Z,79.90
2018-05-10T17:41:37.839Z,80.70
2018-05-10T17:44:06.050Z,80.70
2018-05-10T17:46:34.353Z,80.30
2018-05-10T17:49:03.938Z,79.40
2018-05-10T17:51:33.160Z,79.80
2018-05-10T17:54:01.402Z,79.70
2018-05-10T17:56:30.465Z,79.20
2018-05-10T17:58:58.731Z,79.10
2018-05-10T18:01:26.967Z,79.80
2018-05-10T18:03:56.024Z,79.50
2018-05-10T18:06:24.228Z,79.50
2018-05-10T18:08:53.523Z,79.00
2018-05-10T18:11:22.521Z,79.00
2018-05-10T18:13:51.576Z,78.70
2018-05-10T18:16:20.278Z,78.70
2018-05-10T18:18:48.490Z,78.70
2018-05-10T18:21:16.727Z,78.00
2018-05-10T18:23:45.212Z,78.70
2018-05-10T18:26:13.436Z,76.80
2018-05-10T18:28:41.684Z,78.30
2018-05-10T18:31:09.914Z,77.40
2018-05-10T18:33:38.155Z,76.90
2018-05-10T18:36:06.379Z,77.50
2018-05-10T18:38:34.616Z,77.50
2018-05-10T18:41:02.847Z,77.60
2018-05-10T18:43:31.853Z,77.90
2018-05-10T18:46:00.506Z,77.90
2018-05-10T18:48:29.048Z,78.20
2018-05-10T18:50:57.452Z,78.50
2018-05-10T18:53:25.686Z,78.40
2018-05-10T18:55:53.924Z,78.50
2018-05-10T18:58:22.911Z,79.00
2018-05-10T19:00:51.923Z,78.50
2018-05-10T19:03:20.167Z,78.30
2018-05-10T19:05:49.171Z,79.80
2018-05-10T19:08:18.166Z,79.20
2018-05-10T19:10:47.182Z,79.40
2018-05-10T19:13:15.400Z,79.30
2018-05-10T19:15:43.647Z,79.60
2018-05-10T19:18:11.972Z,79.50
2018-05-10T19:20:40.239Z,79.30
2018-05-10T19:23:08.498Z,79.50
2018-05-10T19:25:36.807Z,79.60
2018-05-10T19:28:05.879Z,80.40
2018-05-10T19:30:34.108Z,80.40
2018-05-10T19:33:02.424Z,80.80
2018-05-10T19:35:30.658Z,81.00
2018-05-10T19:37:59.014Z,80.90
2018-05-10T19:40:27.263Z,81.60
2018-05-10T19:42:56.269Z,81.70
2018-05-10T19:45:24.519Z,81.70
2018-05-10T19:47:52.732Z,82.10
2018-05-10T19:52:55.887Z,82.30
2018-05-10T19:55:24.162Z,82.40
2018-05-10T19:57:52.380Z,82.60
2018-05-10T20:00:20.619Z,82.20
2018-05-10T20:02:49.625Z,82.30
2018-05-10T20:05:18.652Z,82.00
2018-05-10T20:07:46.879Z,82.00
2018-05-10T20:10:15.914Z,81.80
2018-05-10T20:12:44.221Z,81.80
2018-05-10T20:15:12.442Z,81.50
2018-05-10T20:17:40.774Z,81.50
2018-05-10T20:20:08.996Z,81.50
2018-05-10T20:22:37.986Z,81.60
2018-05-10T20:25:06.217Z,81.50
2018-05-10T20:27:34.539Z,81.90
2018-05-10T20:30:02.772Z,82.90
2018-05-10T20:32:31.045Z,82.20
2018-05-10T20:34:59.318Z,82.50
2018-05-10T20:37:27.551Z,83.00
2018-05-10T20:39:55.945Z,82.40
2018-05-10T20:42:24.360Z,82.30
2018-05-10T20:44:53.346Z,82.80
2018-05-10T20:47:21.587Z,82.80
2018-05-10T20:49:49.951Z,83.20
2018-05-10T20:52:18.190Z,83.10
2018-05-10T20:54:47.188Z,83.10
2018-05-10T20:57:15.550Z,83.10
2018-05-10T20:59:44.535Z,84.20
2018-05-10T21:02:13.542Z,85.20
2018-05-10T21:04:42.541Z,84.80
2018-05-10T21:07:11.540Z,84.80
2018-05-10T21:09:39.886Z,84.80
2018-05-10T21:12:08.922Z,86.10
2018-05-10T21:14:37.131Z,85.70
2018-05-10T21:17:05.474Z,85.70
2018-05-10T21:19:33.720Z,85.80
2018-05-10T21:22:02.727Z,86.50
2018-05-10T21:24:37.399Z,86.40
2018-05-10T21:27:06.578Z,86.90
2018-05-10T21:29:37.464Z,86.60
2018-05-10T21:32:06.835Z,87.20
2018-05-10T21:34:35.326Z,87.20
2018-05-10T21:37:03.849Z,87.60
2018-05-10T21:39:32.477Z,88.20
2018-05-10T21:42:00.686Z,88.60
2018-05-10T21:44:29.782Z,89.00
2018-05-10T21:46:58.035Z,89.00
2018-05-10T21:49:38.280Z,89.40
2018-05-10T21:52:06.491Z,89.60
2018-05-10T21:54:34.736Z,89.80
2018-05-10T21:57:03.895Z,89.60
2018-05-10T21:59:32.133Z,89.50
2018-05-10T22:02:00.383Z,89.40
2018-05-10T22:04:28.773Z,89.40
2018-05-10T22:06:57.764Z,89.20
2018-05-10T22:09:26.768Z,89.60
2018-05-10T22:11:55.015Z,89.70
2018-05-10T22:14:24.019Z,90.00
2018-05-10T22:16:53.016Z,90.10
2018-05-10T22:19:21.270Z,90.10
2018-05-10T22:21:50.298Z,90.10
2018-05-10T22:24:18.555Z,90.10
2018-05-10T22:26:47.551Z,90.30
2018-05-10T22:29:15.793Z,90.30
2018-05-10T22:31:44.018Z,90.30
2018-05-10T22:34:12.275Z,90.30
2018-05-10T22:36:40.513Z,90.40
2018-05-10T22:39:08.764Z,90.60
2018-05-10T22:41:36.991Z,90.60
2018-05-10T22:44:06.086Z,90.30
2018-05-10T22:46:34.241Z,90.30
2018-05-10T22:49:02.479Z,90.10
2018-05-10T22:51:30.993Z,89.90
2018-05-10T22:53:59.232Z,90.00
2018-05-10T22:56:27.487Z,90.20
2018-05-10T22:58:55.735Z,90.20
2018-05-10T23:01:23.964Z,90.00
2018-05-10T23:03:52.216Z,89.60
2018-05-10T23:06:20.474Z,89.70
2018-05-10T23:11:48.979Z,89.80
2018-05-10T23:14:17.598Z,89.80
2018-05-10T23:16:45.803Z,90.00
2018-05-10T23:19:14.807Z,90.00
2018-05-10T23:21:43.038Z,90.00
2018-05-10T23:24:11.292Z,90.10
2018-05-10T23:26:39.532Z,90.10
2018-05-10T23:29:07.784Z,90.00
2018-05-10T23:31:36.775Z,90.20
2018-05-10T23:34:05.104Z,90.20
2018-05-10T23:36:33.362Z,90.20
2018-05-10T23:39:01.612Z,90.20
2018-05-10T23:41:29.847Z,90.00
2018-05-10T23:43:58.091Z,89.80
2018-05-10T23:46:26.320Z,89.90
2018-05-10T23:48:55.335Z,90.30
2018-05-10T23:51:23.568Z,90.30
2018-05-10T23:53:52.584Z,91.40
2018-05-10T23:56:20.825Z,91.10
2018-05-10T23:58:49.075Z,91.40
